sensor_id;sensor_type;location;lat;lon;timestamp;pressure;altitude;pressure_sealevel;temperature;humidity
59545;BME280;45368;55.002;-1.592;2023-05-21T00:00:44;101820.55;;;13.47;43.81
59545;BME280;45368;55.002;-1.592;2023-05-21T00:03:11;101815.04;;;13.48;42.75
59545;BME280;45368;55.002;-1.592;2023-05-21T00:05:39;101816.49;;;13.25;42.77
59545;BME280;45368;55.002;-1.592;2023-05-21T00:08:10;101818.87;;;13.50;43.13
59545;BME280;45368;55.002;-1.592;2023-05-21T00:10:37;101817.64;;;13.57;42.78
59545;BME280;45368;55.002;-1.592;2023-05-21T00:14:12;101817.50;;;12.99;43.40
59545;BME280;45368;55.002;-1.592;2023-05-21T00:17:44;101818.48;;;12.66;44.92
59545;BME280;45368;55.002;-1.592;2023-05-21T00:20:16;101813.50;;;13.02;43.58
59545;BME280;45368;55.002;-1.592;2023-05-21T00:22:45;101807.49;;;14.05;41.65
59545;BME280;45368;55.002;-1.592;2023-05-21T00:25:24;101807.28;;;14.36;41.33
59545;BME280;45368;55.002;-1.592;2023-05-21T00:27:58;101806.91;;;13.22;42.54
59545;BME280;45368;55.002;-1.592;2023-05-21T00:30:26;101800.06;;;13.11;42.82
59545;BME280;45368;55.002;-1.592;2023-05-21T00:32:53;101790.60;;;13.42;43.48
59545;BME280;45368;55.002;-1.592;2023-05-21T00:35:19;101790.74;;;13.14;45.08
59545;BME280;45368;55.002;-1.592;2023-05-21T00:37:46;101784.60;;;13.21;44.10
59545;BME280;45368;55.002;-1.592;2023-05-21T00:40:13;101787.25;;;13.09;44.37
59545;BME280;45368;55.002;-1.592;2023-05-21T00:42:41;101790.78;;;12.56;45.77
59545;BME280;45368;55.002;-1.592;2023-05-21T00:45:08;101787.13;;;12.43;45.41
59545;BME280;45368;55.002;-1.592;2023-05-21T00:47:36;101784.74;;;12.64;45.17
59545;BME280;45368;55.002;-1.592;2023-05-21T00:50:04;101787.92;;;12.16;46.00
59545;BME280;45368;55.002;-1.592;2023-05-21T00:52:32;101791.71;;;12.27;45.90
59545;BME280;45368;55.002;-1.592;2023-05-21T00:54:59;101787.22;;;12.67;45.59
59545;BME280;45368;55.002;-1.592;2023-05-21T00:57:26;101784.46;;;12.70;44.83
59545;BME280;45368;55.002;-1.592;2023-05-21T00:59:54;101788.56;;;12.88;44.93
59545;BME280;45368;55.002;-1.592;2023-05-21T01:02:21;101780.46;;;13.92;43.27
59545;BME280;45368;55.002;-1.592;2023-05-21T01:04:49;101781.13;;;13.56;43.89
59545;BME280;45368;55.002;-1.592;2023-05-21T01:07:17;101780.67;;;12.96;45.65
59545;BME280;45368;55.002;-1.592;2023-05-21T01:09:44;101778.33;;;12.38;47.04
59545;BME280;45368;55.002;-1.592;2023-05-21T01:12:13;101770.62;;;13.15;46.32
59545;BME280;45368;55.002;-1.592;2023-05-21T01:14:41;101768.65;;;12.22;47.59
59545;BME280;45368;55.002;-1.592;2023-05-21T01:17:08;101769.06;;;11.92;48.12
59545;BME280;45368;55.002;-1.592;2023-05-21T01:19:36;101771.11;;;11.84;49.23
59545;BME280;45368;55.002;-1.592;2023-05-21T01:22:05;101766.26;;;12.11;48.18
59545;BME280;45368;55.002;-1.592;2023-05-21T01:24:32;101764.57;;;13.04;46.64
59545;BME280;45368;55.002;-1.592;2023-05-21T01:27:02;101766.79;;;12.25;47.45
59545;BME280;45368;55.002;-1.592;2023-05-21T01:29:29;101767.04;;;12.37;47.63
59545;BME280;45368;55.002;-1.592;2023-05-21T01:32:01;101771.82;;;12.08;47.95
59545;BME280;45368;55.002;-1.592;2023-05-21T01:34:36;101767.25;;;12.67;46.99
59545;BME280;45368;55.002;-1.592;2023-05-21T01:37:13;101769.22;;;12.98;47.34
59545;BME280;45368;55.002;-1.592;2023-05-21T01:39:43;101765.08;;;12.92;47.02
59545;BME280;45368;55.002;-1.592;2023-05-21T01:42:14;101763.92;;;12.35;47.75
59545;BME280;45368;55.002;-1.592;2023-05-21T01:44:43;101760.58;;;12.86;47.02
59545;BME280;45368;55.002;-1.592;2023-05-21T01:47:11;101762.14;;;12.87;47.22
59545;BME280;45368;55.002;-1.592;2023-05-21T01:49:39;101757.74;;;13.18;46.98
59545;BME280;45368;55.002;-1.592;2023-05-21T01:52:07;101761.08;;;12.55;47.75
59545;BME280;45368;55.002;-1.592;2023-05-21T01:54:34;101761.62;;;12.57;47.53
59545;BME280;45368;55.002;-1.592;2023-05-21T01:57:01;101759.17;;;12.82;47.29
59545;BME280;45368;55.002;-1.592;2023-05-21T01:59:29;101756.93;;;12.52;47.44
59545;BME280;45368;55.002;-1.592;2023-05-21T02:01:57;101755.57;;;12.13;47.23
59545;BME280;45368;55.002;-1.592;2023-05-21T02:04:23;101751.66;;;13.23;46.29
59545;BME280;45368;55.002;-1.592;2023-05-21T02:06:50;101748.08;;;12.24;47.87
59545;BME280;45368;55.002;-1.592;2023-05-21T02:09:17;101744.50;;;11.74;48.64
59545;BME280;45368;55.002;-1.592;2023-05-21T02:11:45;101738.75;;;12.13;48.36
59545;BME280;45368;55.002;-1.592;2023-05-21T02:14:12;101742.67;;;11.90;49.27
59545;BME280;45368;55.002;-1.592;2023-05-21T02:16:40;101743.78;;;11.66;49.34
59545;BME280;45368;55.002;-1.592;2023-05-21T02:19:07;101745.09;;;11.76;49.24
59545;BME280;45368;55.002;-1.592;2023-05-21T02:21:35;101741.82;;;12.15;48.84
59545;BME280;45368;55.002;-1.592;2023-05-21T02:24:02;101740.24;;;11.76;49.49
59545;BME280;45368;55.002;-1.592;2023-05-21T02:26:29;101731.11;;;12.17;48.32
59545;BME280;45368;55.002;-1.592;2023-05-21T02:28:56;101729.76;;;12.73;48.16
59545;BME280;45368;55.002;-1.592;2023-05-21T02:31:23;101726.03;;;12.31;48.27
59545;BME280;45368;55.002;-1.592;2023-05-21T02:33:50;101724.57;;;12.66;47.65
59545;BME280;45368;55.002;-1.592;2023-05-21T02:36:17;101726.53;;;12.44;48.32
59545;BME280;45368;55.002;-1.592;2023-05-21T02:38:44;101726.88;;;13.39;46.56
59545;BME280;45368;55.002;-1.592;2023-05-21T02:41:11;101726.89;;;12.78;47.17
59545;BME280;45368;55.002;-1.592;2023-05-21T02:43:39;101726.09;;;12.51;48.62
59545;BME280;45368;55.002;-1.592;2023-05-21T02:46:06;101724.18;;;12.77;47.60
59545;BME280;45368;55.002;-1.592;2023-05-21T02:48:34;101722.31;;;12.45;48.00
59545;BME280;45368;55.002;-1.592;2023-05-21T02:51:01;101719.67;;;12.67;48.28
59545;BME280;45368;55.002;-1.592;2023-05-21T02:53:28;101715.06;;;12.70;48.08
59545;BME280;45368;55.002;-1.592;2023-05-21T02:55:56;101711.84;;;12.11;48.56
59545;BME280;45368;55.002;-1.592;2023-05-21T02:58:23;101711.00;;;12.26;47.84
59545;BME280;45368;55.002;-1.592;2023-05-21T03:00:50;101708.27;;;12.70;47.11
59545;BME280;45368;55.002;-1.592;2023-05-21T03:03:18;101709.15;;;12.23;48.27
59545;BME280;45368;55.002;-1.592;2023-05-21T03:05:45;101707.19;;;12.64;47.69
59545;BME280;45368;55.002;-1.592;2023-05-21T03:08:13;101705.80;;;12.45;47.43
59545;BME280;45368;55.002;-1.592;2023-05-21T03:10:40;101709.17;;;12.38;48.31
59545;BME280;45368;55.002;-1.592;2023-05-21T03:13:07;101706.96;;;12.59;48.23
59545;BME280;45368;55.002;-1.592;2023-05-21T03:15:34;101703.80;;;12.88;47.14
59545;BME280;45368;55.002;-1.592;2023-05-21T03:18:02;101703.25;;;12.80;46.93
59545;BME280;45368;55.002;-1.592;2023-05-21T03:20:30;101703.62;;;12.46;47.90
59545;BME280;45368;55.002;-1.592;2023-05-21T03:22:57;101702.18;;;12.69;47.19
59545;BME280;45368;55.002;-1.592;2023-05-21T03:25:24;101709.21;;;12.12;48.56
59545;BME280;45368;55.002;-1.592;2023-05-21T03:27:51;101711.36;;;12.58;48.16
59545;BME280;45368;55.002;-1.592;2023-05-21T03:30:19;101715.87;;;12.34;48.39
59545;BME280;45368;55.002;-1.592;2023-05-21T03:32:46;101714.26;;;12.84;47.23
59545;BME280;45368;55.002;-1.592;2023-05-21T03:35:14;101712.57;;;12.43;48.33
59545;BME280;45368;55.002;-1.592;2023-05-21T03:37:40;101711.87;;;12.07;49.23
59545;BME280;45368;55.002;-1.592;2023-05-21T03:40:08;101709.99;;;12.32;48.62
59545;BME280;45368;55.002;-1.592;2023-05-21T03:42:35;101711.58;;;12.15;48.68
59545;BME280;45368;55.002;-1.592;2023-05-21T03:45:04;101708.88;;;12.12;48.57
59545;BME280;45368;55.002;-1.592;2023-05-21T03:47:31;101704.65;;;13.46;46.80
59545;BME280;45368;55.002;-1.592;2023-05-21T03:49:59;101702.38;;;14.77;45.19
59545;BME280;45368;55.002;-1.592;2023-05-21T03:52:26;101703.59;;;12.92;47.16
59545;BME280;45368;55.002;-1.592;2023-05-21T03:54:53;101701.06;;;13.45;46.93
59545;BME280;45368;55.002;-1.592;2023-05-21T03:57:20;101701.80;;;13.96;45.82
59545;BME280;45368;55.002;-1.592;2023-05-21T03:59:46;101700.84;;;14.10;45.37
59545;BME280;45368;55.002;-1.592;2023-05-21T04:02:13;101701.47;;;15.40;44.25
59545;BME280;45368;55.002;-1.592;2023-05-21T04:04:41;101701.48;;;13.26;46.02
59545;BME280;45368;55.002;-1.592;2023-05-21T04:07:08;101700.88;;;13.08;47.27
59545;BME280;45368;55.002;-1.592;2023-05-21T04:09:35;101704.71;;;12.70;48.81
59545;BME280;45368;55.002;-1.592;2023-05-21T04:12:03;101705.92;;;12.16;49.56
59545;BME280;45368;55.002;-1.592;2023-05-21T04:14:31;101705.85;;;12.26;49.05
59545;BME280;45368;55.002;-1.592;2023-05-21T04:16:58;101707.48;;;12.51;48.76
59545;BME280;45368;55.002;-1.592;2023-05-21T04:20:30;101707.84;;;12.19;49.86
59545;BME280;45368;55.002;-1.592;2023-05-21T04:23:01;101704.13;;;12.28;49.23
59545;BME280;45368;55.002;-1.592;2023-05-21T04:25:31;101700.01;;;12.50;49.92
59545;BME280;45368;55.002;-1.592;2023-05-21T04:28:03;101698.43;;;12.47;48.58
59545;BME280;45368;55.002;-1.592;2023-05-21T04:31:43;101695.18;;;13.53;46.21
59545;BME280;45368;55.002;-1.592;2023-05-21T04:34:10;101693.32;;;14.93;44.64
59545;BME280;45368;55.002;-1.592;2023-05-21T04:36:37;101693.70;;;14.10;44.83
59545;BME280;45368;55.002;-1.592;2023-05-21T04:39:04;101694.16;;;15.11;43.90
59545;BME280;45368;55.002;-1.592;2023-05-21T04:41:31;101695.64;;;14.23;44.59
59545;BME280;45368;55.002;-1.592;2023-05-21T04:43:58;101696.86;;;15.18;43.44
59545;BME280;45368;55.002;-1.592;2023-05-21T04:46:25;101697.56;;;15.53;43.60
59545;BME280;45368;55.002;-1.592;2023-05-21T04:48:53;101693.07;;;16.14;42.08
59545;BME280;45368;55.002;-1.592;2023-05-21T04:51:20;101698.19;;;16.48;42.10
59545;BME280;45368;55.002;-1.592;2023-05-21T04:53:47;101695.76;;;16.73;41.87
59545;BME280;45368;55.002;-1.592;2023-05-21T04:56:15;101703.31;;;15.21;42.97
59545;BME280;45368;55.002;-1.592;2023-05-21T04:58:43;101708.11;;;14.74;43.82
59545;BME280;45368;55.002;-1.592;2023-05-21T05:01:10;101706.43;;;15.97;42.55
59545;BME280;45368;55.002;-1.592;2023-05-21T05:03:37;101710.27;;;16.53;41.82
59545;BME280;45368;55.002;-1.592;2023-05-21T05:06:05;101705.92;;;16.46;41.50
59545;BME280;45368;55.002;-1.592;2023-05-21T05:08:32;101709.64;;;15.70;42.04
59545;BME280;45368;55.002;-1.592;2023-05-21T05:10:59;101717.55;;;14.83;43.46
59545;BME280;45368;55.002;-1.592;2023-05-21T05:13:26;101715.12;;;15.31;42.81
59545;BME280;45368;55.002;-1.592;2023-05-21T05:15:53;101711.69;;;16.41;42.04
59545;BME280;45368;55.002;-1.592;2023-05-21T05:18:21;101711.43;;;15.69;42.35
59545;BME280;45368;55.002;-1.592;2023-05-21T05:20:48;101713.94;;;15.36;42.99
59545;BME280;45368;55.002;-1.592;2023-05-21T05:23:15;101711.75;;;15.93;42.36
59545;BME280;45368;55.002;-1.592;2023-05-21T05:25:42;101711.71;;;15.63;42.90
59545;BME280;45368;55.002;-1.592;2023-05-21T05:28:09;101716.11;;;16.05;42.10
59545;BME280;45368;55.002;-1.592;2023-05-21T05:30:36;101719.97;;;15.76;42.70
59545;BME280;45368;55.002;-1.592;2023-05-21T05:33:03;101722.46;;;16.45;41.68
59545;BME280;45368;55.002;-1.592;2023-05-21T05:35:30;101714.63;;;16.87;41.17
59545;BME280;45368;55.002;-1.592;2023-05-21T05:37:57;101720.89;;;15.89;42.05
59545;BME280;45368;55.002;-1.592;2023-05-21T05:40:25;101719.42;;;16.19;42.47
59545;BME280;45368;55.002;-1.592;2023-05-21T05:42:52;101723.16;;;15.24;43.46
59545;BME280;45368;55.002;-1.592;2023-05-21T05:45:19;101720.21;;;15.26;42.78
59545;BME280;45368;55.002;-1.592;2023-05-21T05:47:47;101724.49;;;14.33;46.09
59545;BME280;45368;55.002;-1.592;2023-05-21T05:50:14;101724.29;;;15.17;43.89
59545;BME280;45368;55.002;-1.592;2023-05-21T05:52:40;101725.87;;;14.63;44.66
59545;BME280;45368;55.002;-1.592;2023-05-21T05:55:08;101732.74;;;14.44;45.17
59545;BME280;45368;55.002;-1.592;2023-05-21T05:57:36;101741.29;;;14.06;46.32
59545;BME280;45368;55.002;-1.592;2023-05-21T06:00:04;101740.03;;;14.54;45.03
59545;BME280;45368;55.002;-1.592;2023-05-21T06:02:32;101741.47;;;14.20;45.67
59545;BME280;45368;55.002;-1.592;2023-05-21T06:04:58;101739.08;;;14.44;44.74
59545;BME280;45368;55.002;-1.592;2023-05-21T06:07:25;101740.59;;;14.13;45.03
59545;BME280;45368;55.002;-1.592;2023-05-21T06:09:52;101740.76;;;14.75;44.60
59545;BME280;45368;55.002;-1.592;2023-05-21T06:12:19;101735.60;;;16.01;42.66
59545;BME280;45368;55.002;-1.592;2023-05-21T06:14:46;101740.03;;;14.73;44.48
59545;BME280;45368;55.002;-1.592;2023-05-21T06:17:14;101740.29;;;14.22;45.38
59545;BME280;45368;55.002;-1.592;2023-05-21T06:19:42;101745.13;;;13.88;46.65
59545;BME280;45368;55.002;-1.592;2023-05-21T06:22:09;101747.36;;;14.42;45.68
59545;BME280;45368;55.002;-1.592;2023-05-21T06:24:36;101743.98;;;15.45;44.13
59545;BME280;45368;55.002;-1.592;2023-05-21T06:27:03;101742.05;;;15.59;43.34
59545;BME280;45368;55.002;-1.592;2023-05-21T06:29:31;101740.96;;;16.11;42.59
59545;BME280;45368;55.002;-1.592;2023-05-21T06:31:58;101741.96;;;16.36;42.35
59545;BME280;45368;55.002;-1.592;2023-05-21T06:34:26;101747.42;;;15.90;43.78
59545;BME280;45368;55.002;-1.592;2023-05-21T06:36:54;101743.88;;;16.00;43.73
59545;BME280;45368;55.002;-1.592;2023-05-21T06:39:21;101742.74;;;16.65;42.70
59545;BME280;45368;55.002;-1.592;2023-05-21T06:41:47;101747.12;;;15.54;44.34
59545;BME280;45368;55.002;-1.592;2023-05-21T06:44:14;101747.05;;;15.92;43.82
59545;BME280;45368;55.002;-1.592;2023-05-21T06:46:42;101749.99;;;15.20;45.74
59545;BME280;45368;55.002;-1.592;2023-05-21T06:49:10;101744.65;;;15.98;44.15
59545;BME280;45368;55.002;-1.592;2023-05-21T06:51:37;101749.74;;;15.96;43.97
59545;BME280;45368;55.002;-1.592;2023-05-21T06:54:04;101748.79;;;16.18;42.98
59545;BME280;45368;55.002;-1.592;2023-05-21T06:56:32;101752.41;;;15.52;44.41
59545;BME280;45368;55.002;-1.592;2023-05-21T06:58:58;101742.63;;;15.74;43.19
59545;BME280;45368;55.002;-1.592;2023-05-21T07:01:25;101736.71;;;17.12;41.76
59545;BME280;45368;55.002;-1.592;2023-05-21T07:03:52;101743.00;;;16.49;42.35
59545;BME280;45368;55.002;-1.592;2023-05-21T07:06:19;101740.31;;;16.98;41.92
59545;BME280;45368;55.002;-1.592;2023-05-21T07:08:46;101746.06;;;16.26;42.83
59545;BME280;45368;55.002;-1.592;2023-05-21T07:11:13;101741.53;;;17.05;42.15
59545;BME280;45368;55.002;-1.592;2023-05-21T07:13:41;101741.83;;;16.99;42.81
59545;BME280;45368;55.002;-1.592;2023-05-21T07:16:08;101743.52;;;17.18;41.77
59545;BME280;45368;55.002;-1.592;2023-05-21T07:18:35;101746.11;;;16.64;43.16
59545;BME280;45368;55.002;-1.592;2023-05-21T07:21:02;101748.46;;;16.00;43.79
59545;BME280;45368;55.002;-1.592;2023-05-21T07:23:30;101743.62;;;16.92;43.20
59545;BME280;45368;55.002;-1.592;2023-05-21T07:25:57;101742.94;;;17.60;41.70
59545;BME280;45368;55.002;-1.592;2023-05-21T07:28:25;101741.75;;;18.11;40.81
59545;BME280;45368;55.002;-1.592;2023-05-21T07:30:52;101740.84;;;17.79;41.51
59545;BME280;45368;55.002;-1.592;2023-05-21T07:33:25;101744.73;;;18.29;40.20
59545;BME280;45368;55.002;-1.592;2023-05-21T07:35:52;101744.45;;;18.42;40.40
59545;BME280;45368;55.002;-1.592;2023-05-21T07:38:19;101742.64;;;18.41;39.88
59545;BME280;45368;55.002;-1.592;2023-05-21T07:40:46;101746.12;;;17.97;40.99
59545;BME280;45368;55.002;-1.592;2023-05-21T07:43:13;101745.14;;;18.65;39.75
59545;BME280;45368;55.002;-1.592;2023-05-21T07:45:41;101747.72;;;18.69;39.44
59545;BME280;45368;55.002;-1.592;2023-05-21T07:48:08;101748.82;;;19.14;39.26
59545;BME280;45368;55.002;-1.592;2023-05-21T07:50:36;101748.71;;;19.38;38.96
59545;BME280;45368;55.002;-1.592;2023-05-21T07:53:03;101752.45;;;18.59;39.09
59545;BME280;45368;55.002;-1.592;2023-05-21T07:55:30;101750.21;;;18.45;39.23
59545;BME280;45368;55.002;-1.592;2023-05-21T07:57:58;101751.17;;;18.07;40.50
59545;BME280;45368;55.002;-1.592;2023-05-21T08:00:25;101751.32;;;17.75;41.03
59545;BME280;45368;55.002;-1.592;2023-05-21T08:02:53;101748.00;;;17.50;41.26
59545;BME280;45368;55.002;-1.592;2023-05-21T08:05:19;101754.16;;;17.35;41.71
59545;BME280;45368;55.002;-1.592;2023-05-21T08:07:47;101753.22;;;18.04;40.60
59545;BME280;45368;55.002;-1.592;2023-05-21T08:10:14;101753.07;;;17.90;40.99
59545;BME280;45368;55.002;-1.592;2023-05-21T08:12:41;101752.70;;;18.56;40.11
59545;BME280;45368;55.002;-1.592;2023-05-21T08:15:09;101751.35;;;19.22;39.17
59545;BME280;45368;55.002;-1.592;2023-05-21T08:17:36;101752.35;;;20.20;38.02
59545;BME280;45368;55.002;-1.592;2023-05-21T08:20:05;101749.44;;;20.51;37.26
59545;BME280;45368;55.002;-1.592;2023-05-21T08:22:32;101747.05;;;20.28;37.21
59545;BME280;45368;55.002;-1.592;2023-05-21T08:24:59;101747.70;;;20.53;36.60
59545;BME280;45368;55.002;-1.592;2023-05-21T08:27:26;101738.85;;;21.42;35.98
59545;BME280;45368;55.002;-1.592;2023-05-21T08:29:53;101738.05;;;21.66;35.26
59545;BME280;45368;55.002;-1.592;2023-05-21T08:32:21;101731.47;;;24.13;31.34
59545;BME280;45368;55.002;-1.592;2023-05-21T08:34:49;101729.41;;;23.74;30.86
59545;BME280;45368;55.002;-1.592;2023-05-21T08:37:16;101729.45;;;25.05;29.88
59545;BME280;45368;55.002;-1.592;2023-05-21T08:39:44;101723.96;;;25.66;28.46
59545;BME280;45368;55.002;-1.592;2023-05-21T08:42:24;101727.17;;;25.50;28.69
59545;BME280;45368;55.002;-1.592;2023-05-21T08:46:01;101724.09;;;25.74;27.64
59545;BME280;45368;55.002;-1.592;2023-05-21T08:48:30;101721.39;;;25.21;27.81
59545;BME280;45368;55.002;-1.592;2023-05-21T08:51:03;101727.36;;;24.04;27.21
59545;BME280;45368;55.002;-1.592;2023-05-21T08:53:34;101728.22;;;22.77;29.50
59545;BME280;45368;55.002;-1.592;2023-05-21T08:56:01;101725.87;;;24.29;27.30
59545;BME280;45368;55.002;-1.592;2023-05-21T08:58:31;101724.90;;;23.21;27.75
59545;BME280;45368;55.002;-1.592;2023-05-21T09:00:58;101729.77;;;22.14;30.94
59545;BME280;45368;55.002;-1.592;2023-05-21T09:03:27;101726.16;;;23.15;28.64
59545;BME280;45368;55.002;-1.592;2023-05-21T09:05:55;101727.15;;;22.55;29.36
59545;BME280;45368;55.002;-1.592;2023-05-21T09:08:28;101729.36;;;21.57;30.65
59545;BME280;45368;55.002;-1.592;2023-05-21T09:10:59;101735.09;;;20.52;32.37
59545;BME280;45368;55.002;-1.592;2023-05-21T09:13:27;101730.38;;;22.20;31.27
59545;BME280;45368;55.002;-1.592;2023-05-21T09:15:55;101731.56;;;21.44;32.28
59545;BME280;45368;55.002;-1.592;2023-05-21T09:18:23;101731.09;;;22.75;31.49
59545;BME280;45368;55.002;-1.592;2023-05-21T09:20:50;101735.37;;;20.62;33.29
59545;BME280;45368;55.002;-1.592;2023-05-21T09:23:18;101735.92;;;20.91;33.73
59545;BME280;45368;55.002;-1.592;2023-05-21T09:25:47;101738.82;;;20.37;34.53
59545;BME280;45368;55.002;-1.592;2023-05-21T09:28:16;101736.87;;;20.38;34.04
59545;BME280;45368;55.002;-1.592;2023-05-21T09:30:44;101732.98;;;20.51;33.86
59545;BME280;45368;55.002;-1.592;2023-05-21T09:33:23;101733.06;;;20.25;33.88
59545;BME280;45368;55.002;-1.592;2023-05-21T09:35:51;101733.43;;;19.13;35.12
59545;BME280;45368;55.002;-1.592;2023-05-21T09:38:22;101733.89;;;18.76;35.49
59545;BME280;45368;55.002;-1.592;2023-05-21T09:40:49;101732.08;;;18.98;35.61
59545;BME280;45368;55.002;-1.592;2023-05-21T09:43:17;101731.87;;;19.67;34.78
59545;BME280;45368;55.002;-1.592;2023-05-21T09:45:50;101732.19;;;19.85;35.00
59545;BME280;45368;55.002;-1.592;2023-05-21T09:48:31;101734.32;;;19.39;34.57
59545;BME280;45368;55.002;-1.592;2023-05-21T09:51:08;101737.30;;;18.20;37.13
59545;BME280;45368;55.002;-1.592;2023-05-21T09:53:35;101735.57;;;19.09;34.91
59545;BME280;45368;55.002;-1.592;2023-05-21T09:56:02;101735.05;;;19.56;33.49
59545;BME280;45368;55.002;-1.592;2023-05-21T09:58:29;101735.10;;;19.52;33.39
59545;BME280;45368;55.002;-1.592;2023-05-21T10:00:58;101729.10;;;19.90;33.33
59545;BME280;45368;55.002;-1.592;2023-05-21T10:03:26;101729.55;;;20.09;33.63
59545;BME280;45368;55.002;-1.592;2023-05-21T10:05:54;101729.73;;;19.30;33.55
59545;BME280;45368;55.002;-1.592;2023-05-21T10:08:26;101732.36;;;19.38;33.62
59545;BME280;45368;55.002;-1.592;2023-05-21T10:11:04;101729.64;;;19.35;33.01
59545;BME280;45368;55.002;-1.592;2023-05-21T10:13:33;101729.45;;;20.22;32.51
59545;BME280;45368;55.002;-1.592;2023-05-21T10:16:05;101729.53;;;20.59;32.24
59545;BME280;45368;55.002;-1.592;2023-05-21T10:18:33;101732.34;;;20.37;33.12
59545;BME280;45368;55.002;-1.592;2023-05-21T10:21:01;101731.44;;;20.19;33.67
59545;BME280;45368;55.002;-1.592;2023-05-21T10:23:29;101731.05;;;20.31;34.16
59545;BME280;45368;55.002;-1.592;2023-05-21T10:25:58;101728.52;;;20.54;33.93
59545;BME280;45368;55.002;-1.592;2023-05-21T10:28:27;101724.32;;;20.67;33.57
59545;BME280;45368;55.002;-1.592;2023-05-21T10:30:54;101724.15;;;20.06;34.15
59545;BME280;45368;55.002;-1.592;2023-05-21T10:33:22;101726.94;;;19.85;34.79
59545;BME280;45368;55.002;-1.592;2023-05-21T10:35:52;101723.78;;;19.60;35.04
59545;BME280;45368;55.002;-1.592;2023-05-21T10:38:20;101722.53;;;19.41;35.10
59545;BME280;45368;55.002;-1.592;2023-05-21T10:40:48;101723.38;;;19.21;36.53
59545;BME280;45368;55.002;-1.592;2023-05-21T10:43:36;101718.80;;;19.21;36.05
59545;BME280;45368;55.002;-1.592;2023-05-21T10:46:18;101718.31;;;19.58;34.42
59545;BME280;45368;55.002;-1.592;2023-05-21T10:48:59;101719.29;;;18.68;36.61
59545;BME280;45368;55.002;-1.592;2023-05-21T10:51:38;101716.10;;;19.65;34.71
59545;BME280;45368;55.002;-1.592;2023-05-21T10:54:45;101716.79;;;19.92;34.88
59545;BME280;45368;55.002;-1.592;2023-05-21T10:57:29;101707.58;;;20.83;33.19
59545;BME280;45368;55.002;-1.592;2023-05-21T11:00:01;101708.16;;;21.09;32.20
59545;BME280;45368;55.002;-1.592;2023-05-21T11:02:29;101702.39;;;22.16;29.46
59545;BME280;45368;55.002;-1.592;2023-05-21T11:05:00;101702.82;;;22.26;29.91
59545;BME280;45368;55.002;-1.592;2023-05-21T11:07:50;101701.33;;;23.50;29.20
59545;BME280;45368;55.002;-1.592;2023-05-21T11:12:33;101696.48;;;25.98;25.60
59545;BME280;45368;55.002;-1.592;2023-05-21T11:15:01;101691.01;;;26.39;24.74
59545;BME280;45368;55.002;-1.592;2023-05-21T11:17:37;101684.65;;;27.62;23.71
59545;BME280;45368;55.002;-1.592;2023-05-21T11:20:07;101693.99;;;25.83;23.84
59545;BME280;45368;55.002;-1.592;2023-05-21T11:22:36;101690.24;;;26.68;23.40
59545;BME280;45368;55.002;-1.592;2023-05-21T11:25:04;101688.87;;;27.09;22.25
59545;BME280;45368;55.002;-1.592;2023-05-21T11:27:32;101686.15;;;27.49;22.40
59545;BME280;45368;55.002;-1.592;2023-05-21T11:30:03;101696.78;;;25.29;23.71
59545;BME280;45368;55.002;-1.592;2023-05-21T11:32:30;101689.64;;;26.42;22.50
59545;BME280;45368;55.002;-1.592;2023-05-21T11:34:59;101693.62;;;25.78;23.52
59545;BME280;45368;55.002;-1.592;2023-05-21T11:37:29;101693.78;;;24.95;23.80
59545;BME280;45368;55.002;-1.592;2023-05-21T11:40:15;101690.00;;;25.25;23.15
59545;BME280;45368;55.002;-1.592;2023-05-21T11:42:44;101689.63;;;25.08;22.85
59545;BME280;45368;55.002;-1.592;2023-05-21T11:45:16;101683.56;;;26.29;21.43
59545;BME280;45368;55.002;-1.592;2023-05-21T11:47:45;101687.71;;;26.06;21.32
59545;BME280;45368;55.002;-1.592;2023-05-21T11:50:14;101693.52;;;25.73;21.98
59545;BME280;45368;55.002;-1.592;2023-05-21T11:52:42;101697.66;;;24.58;21.97
59545;BME280;45368;55.002;-1.592;2023-05-21T11:55:09;101694.26;;;23.57;23.84
59545;BME280;45368;55.002;-1.592;2023-05-21T11:57:40;101698.43;;;22.39;25.83
59545;BME280;45368;55.002;-1.592;2023-05-21T12:00:13;101699.62;;;21.49;26.23
59545;BME280;45368;55.002;-1.592;2023-05-21T12:02:44;101707.03;;;20.94;26.59
59545;BME280;45368;55.002;-1.592;2023-05-21T12:05:12;101710.66;;;20.59;27.31
59545;BME280;45368;55.002;-1.592;2023-05-21T12:07:39;101704.63;;;20.49;28.32
59545;BME280;45368;55.002;-1.592;2023-05-21T12:10:08;101709.40;;;20.07;29.63
59545;BME280;45368;55.002;-1.592;2023-05-21T12:12:35;101710.91;;;20.24;28.70
59545;BME280;45368;55.002;-1.592;2023-05-21T12:15:03;101707.50;;;21.23;26.99
59545;BME280;45368;55.002;-1.592;2023-05-21T12:17:30;101712.86;;;21.10;27.86
59545;BME280;45368;55.002;-1.592;2023-05-21T12:19:58;101714.04;;;20.39;27.12
59545;BME280;45368;55.002;-1.592;2023-05-21T12:22:25;101709.43;;;19.99;28.52
59545;BME280;45368;55.002;-1.592;2023-05-21T12:24:53;101714.60;;;19.83;29.21
59545;BME280;45368;55.002;-1.592;2023-05-21T12:27:21;101710.62;;;19.35;28.73
59545;BME280;45368;55.002;-1.592;2023-05-21T12:29:49;101709.03;;;19.87;29.17
59545;BME280;45368;55.002;-1.592;2023-05-21T12:32:18;101710.42;;;20.32;29.39
59545;BME280;45368;55.002;-1.592;2023-05-21T12:34:46;101713.40;;;19.93;28.66
59545;BME280;45368;55.002;-1.592;2023-05-21T12:37:15;101716.70;;;19.65;29.20
59545;BME280;45368;55.002;-1.592;2023-05-21T12:39:43;101710.34;;;18.90;28.50
59545;BME280;45368;55.002;-1.592;2023-05-21T12:42:11;101708.30;;;19.89;28.27
59545;BME280;45368;55.002;-1.592;2023-05-21T12:44:46;101707.30;;;19.82;27.87
59545;BME280;45368;55.002;-1.592;2023-05-21T12:47:33;101705.32;;;19.39;28.44
59545;BME280;45368;55.002;-1.592;2023-05-21T12:50:24;101710.05;;;19.51;28.14
59545;BME280;45368;55.002;-1.592;2023-05-21T12:52:59;101704.25;;;20.40;26.97
59545;BME280;45368;55.002;-1.592;2023-05-21T12:55:27;101708.90;;;20.66;25.92